SBGLSBPS

Guest
Details From SBGL - Galeao Antonio Carlos Jombim
To SBPS - Porto Seguro
Flight Number -
Tags decoded
Created
Modified
Stats Distance 483 nm / 895 km
Max Altitude 0 ft / 0 m
Waypoints 3
Social Downloads 1
Likes 0
Share VATSIM

Download

Looking for another format? Having issues loading an existing format? Contact us
Advertisement - Login to hide

Notes

Requested: SBGL ADA POSGA PS012 PS013 PS001 SBPS Unmatched points: POSGA PS012 PS013 PS001

Route

SBGL ADA SBPS

ID Type Via Altitude Latitude Longitude Leg Dist Tot Dist Heading (true) Name
O SBGL APT - 0 ft / 0 m -22.80894˚ -43.24368˚ - 0 nm - Galeao Antonio Carlos Jombim
ADA NDB - 0 ft / 0 m -22.82296˚ -42.09649˚ 63 nm 63 nm 91° / 91° ALDEIA NDB
O SBPS APT - 0 ft / 0 m -16.43863˚ -39.08092˚ 419 nm 483 nm 25° / 23° Porto Seguro

Altitude Profile

Advertisement - Login to hide

Weather


0- 5 10 15 20 25 30 35+ Temperature / ° C

Clouds and Precipitation
Forecast for 2018-05-23 12:00 UTC. Updated 2 hours ago

Ground ~20,000 ft ~40,000 ft Winds

SBGL

Details ICAO SBGL (GIG)
Name Galeao Antonio Carlos Jombim
Region Brazil
Timezone America/Sao_Paulo (UTC-3.0)
Stats Elevation 28 ft / 9 m (AMSL)
Location -22.808938° -43.243681°
Runways 2
Magnetic Variation 22.811° W

METAR

SBGL 231300Z 35003KT 5000 HZ FEW015 22/17 Q1022

Decode

TAF

TAF SBGL 230900Z 2312/2418 30005KT 8000 FEW020 TN16/2407Z TX26/2416Z BECMG 2313/2315 27005KT FEW025 BECMG 2316/2318 20010KT BECMG 2401/2403 15005KT SCT020 BECMG 2407/2409 33005KT BECMG 2414/2416 14010KT RMK PHD

Decode

Departure Runways

ID Width Length Bearing (true) Bearing (mag) Surface Threshold Offset Overrun Length
10 148 ft / 45 m 13,128 ft / 4,001 m 74.39° 97.20° Concrete 0 ft / 0 m 175 ft / 53 m
15 154 ft / 47 m 10,418 ft / 3,175 m 125.78° 148.59° Asphalt 0 ft / 0 m 185 ft / 56 m
28 148 ft / 45 m 13,128 ft / 4,001 m 254.38° 277.19° Concrete 0 ft / 0 m 175 ft / 53 m
33 154 ft / 47 m 10,418 ft / 3,175 m 305.78° 328.59° Asphalt 0 ft / 0 m 185 ft / 56 m

SBPS

Details ICAO SBPS (BPS)
Name Porto Seguro
Region Brazil
Timezone America/Bahia (UTC-3.0)
Stats Elevation 168 ft / 51 m (AMSL)
Location -16.438625° -39.080917°
Runways 1
Magnetic Variation 23.888° W

METAR

SBPS 231300Z 14006KT 9999 SCT020 SCT040 26/23 Q1020

Decode

TAF

TAF SBPS 231000Z 2312/2412 16008KT 7000 SCT013 SCT020 TX26/2316Z TN22/2407Z TEMPO 2314/2317 5000 SHRA SCT008 BKN020 BECMG 2400/2401 26004KT TEMPO 2401/2404 5000 SHRA SCT009 BKN020 TEMPO 2407/2410 4000 SHRA BKN008 BKN020 BECMG 2411/2412 15006KT RMK PEA

Decode

Destination Runways

ID Width Length Bearing (true) Bearing (mag) Surface Threshold Offset Overrun Length
10 148 ft / 45 m 6,532 ft / 1,991 m 74.06° 97.95° Asphalt 0 ft / 0 m 195 ft / 59 m
28 148 ft / 45 m 6,532 ft / 1,991 m 254.06° 277.95° Asphalt 0 ft / 0 m 0 ft / 0 m

Popular Alternatives